Terminal Aerodrome Forecast
Issued by NWS Twin Cities, MN

Home | Current Version | Previous Version | Graphics & Text | Print | Product List | Glossary On
Versions: 1 2 3 4 5 6 7 8 9 10 11 12 13 14 15 16 17 18 19 20 21 22
051
FTUS43 KMPX 261540 AAA
TAFEAU
TAF AMD
KEAU 261540Z 2616/2712 VRB03KT P6SM VCSH FEW025 BKN070
     FM261930 27005KT P6SM SCT030 BKN120
     FM270000 VRB03KT P6SM FEW050=

USA.gov is the U.S. government's official web portal to all federal, state and local government web resources and services.